Wetterstation Oberdrees
Wetterdaten: aktuell Dienstag, 07.12.2021 20:25
Datum Zeit Temp. A. Feuchte A. Luftdruck Regen Wind Richtung Richtung Taupunkt Windchill Windben
07.12.2021 20:25 4,5 C 81 % 1001,9 hPa 0,0 l/m 4,3 km/h (1 Bft) SO 146 1,5 C 4,5 C 11,3 km/h (2 Bft)
07.12.2021 20:20 4,7 C 80 % 1002,4 hPa 0,0 l/m 6,9 km/h (2 Bft) S 169 1,6 C 4,3 C 17,7 km/h (3 Bft)
07.12.2021 20:15 4,7 C 80 % 1002,7 hPa 0,0 l/m 5,0 km/h (1 Bft) O-NO 71 1,6 C 4,7 C 11,3 km/h (2 Bft)
07.12.2021 20:10 4,7 C 80 % 1002,9 hPa 0,0 l/m 4,3 km/h (1 Bft) O-SO 116 1,6 C 4,7 C 11,3 km/h (2 Bft)
07.12.2021 20:05 4,6 C 80 % 1003,1 hPa 0,0 l/m 3,7 km/h (1 Bft) O-SO 117 1,5 C 4,6 C 14,5 km/h (3 Bft)
07.12.2021 20:00 4,6 C 80 % 1003,1 hPa 0,0 l/m 7,7 km/h (2 Bft) SO 136 1,5 C 3,4 C 14,5 km/h (3 Bft)
07.12.2021 19:55 4,5 C 80 % 1003,1 hPa 0,0 l/m 4,9 km/h (1 Bft) O 94 1,4 C 4,5 C 19,3 km/h (3 Bft)
07.12.2021 19:50 4,4 C 80 % 1003,2 hPa 0,0 l/m 5,0 km/h (1 Bft) O-SO 117 1,3 C 4,4 C 12,9 km/h (3 Bft)
07.12.2021 19:45 4,3 C 80 % 1003,3 hPa 0,0 l/m 5,6 km/h (2 Bft) O 101 1,2 C 4,3 C 22,5 km/h (4 Bft)
07.12.2021 19:40 4,2 C 81 % 1003,6 hPa 0,0 l/m 5,2 km/h (1 Bft) O 101 1,2 C 4,2 C 14,5 km/h (3 Bft)
07.12.2021 19:35 4,0 C 81 % 1003,7 hPa 0,0 l/m 6,7 km/h (2 Bft) O-SO 115 1,0 C 3,7 C 19,3 km/h (3 Bft)
07.12.2021 19:30 3,9 C 82 % 1003,8 hPa 0,0 l/m 4,2 km/h (1 Bft) SO 146 1,1 C 3,9 C 16,1 km/h (3 Bft)
07.12.2021 19:25 3,7 C 83 % 1003,9 hPa 0,0 l/m 5,7 km/h (2 Bft) O-SO 104 1,1 C 3,7 C 16,1 km/h (3 Bft)
07.12.2021 19:20 3,7 C 83 % 1004,1 hPa 0,0 l/m 5,1 km/h (1 Bft) O-SO 109 1,1 C 3,7 C 16,1 km/h (3 Bft)
07.12.2021 19:15 3,7 C 82 % 1004,1 hPa 0,0 l/m 5,3 km/h (1 Bft) O 101 0,9 C 3,7 C 12,9 km/h (3 Bft)
07.12.2021 19:10 3,7 C 83 % 1004,4 hPa 0,0 l/m 5,9 km/h (2 Bft) O-SO 103 1,1 C 3,7 C 16,1 km/h (3 Bft)
07.12.2021 19:05 3,8 C 82 % 1004,6 hPa 0,0 l/m 5,4 km/h (2 Bft) O-SO 111 1,0 C 3,8 C 12,9 km/h (3 Bft)
07.12.2021 19:00 3,8 C 82 % 1004,7 hPa 0,0 l/m 5,5 km/h (2 Bft) O 98 1,0 C 3,8 C 17,7 km/h (3 Bft)
07.12.2021 18:55 3,8 C 82 % 1004,9 hPa 0,0 l/m 6,2 km/h (2 Bft) O 87 1,0 C 3,8 C 14,5 km/h (3 Bft)
07.12.2021 18:50 3,8 C 82 % 1005,1 hPa 0,0 l/m 5,6 km/h (2 Bft) O 99 1,0 C 3,8 C 16,1 km/h (3 Bft)
07.12.2021 18:45 3,8 C 82 % 1005,3 hPa 0,0 l/m 7,1 km/h (2 Bft) O-SO 105 1,0 C 3,2 C 16,1 km/h (3 Bft)
07.12.2021 18:40 3,9 C 82 % 1005,4 hPa 0,0 l/m 6,5 km/h (2 Bft) O 94 1,1 C 3,8 C 14,5 km/h (3 Bft)
07.12.2021 18:35 4,1 C 81 % 1005,5 hPa 0,0 l/m 4,7 km/h (1 Bft) O-SO 105 1,1 C 4,1 C 12,9 km/h (3 Bft)
07.12.2021 18:30 4,1 C 81 % 1005,7 hPa 0,0 l/m 3,4 km/h (1 Bft) S 179 1,1 C 4,1 C 11,3 km/h (2 Bft)
07.12.2021 18:25 4,0 C 82 % 1005,8 hPa 0,0 l/m 2,8 km/h (1 Bft) S 171 1,2 C 4,0 C 14,5 km/h (3 Bft)
07.12.2021 18:20 3,9 C 82 % 1005,8 hPa 0,0 l/m 3,6 km/h (1 Bft) O-SO 110 1,1 C 3,9 C 11,3 km/h (2 Bft)
07.12.2021 18:15 3,8 C 82 % 1005,8 hPa 0,0 l/m 3,4 km/h (1 Bft) O-SO 119 1,0 C 3,8 C 11,3 km/h (2 Bft)
07.12.2021 18:10 3,7 C 83 % 1005,9 hPa 0,0 l/m 3,8 km/h (1 Bft) S-SW 209 1,1 C 3,7 C 9,7 km/h (2 Bft)
07.12.2021 18:05 3,5 C 83 % 1006,1 hPa 0,0 l/m 2,1 km/h (1 Bft) S 187 0,9 C 3,5 C 8,0 km/h (2 Bft)
07.12.2021 18:00 3,4 C 84 % 1006,3 hPa 0,0 l/m 2,2 km/h (1 Bft) O-SO 111 1,0 C 3,4 C 9,7 km/h (2 Bft)
07.12.2021 17:55 3,2 C 84 % 1006,3 hPa 0,0 l/m 1,3 km/h (1 Bft) S-SO 155 0,8 C 3,2 C 4,8 km/h (1 Bft)
07.12.2021 17:50 3,2 C 84 % 1006,5 hPa 0,0 l/m 1,2 km/h (1 Bft) S 174 0,8 C 3,2 C 4,8 km/h (1 Bft)
07.12.2021 17:45 3,1 C 84 % 1006,6 hPa 0,0 l/m 2,2 km/h (1 Bft) O 101 0,7 C 3,1 C 6,4 km/h (2 Bft)
07.12.2021 17:40 3,2 C 83 % 1006,5 hPa 0,0 l/m 0,3 km/h (0 Bft) O-SO 114 0,6 C 3,2 C 1,6 km/h (1 Bft)
07.12.2021 17:35 3,2 C 83 % 1006,6 hPa 0,0 l/m 0,9 km/h (0 Bft) O 98 0,6 C 3,2 C 6,4 km/h (2 Bft)
07.12.2021 17:30 3,3 C 83 % 1006,9 hPa 0,0 l/m 1,3 km/h (1 Bft) O-SO 110 0,7 C 3,3 C 4,8 km/h (1 Bft)
07.12.2021 17:25 3,4 C 82 % 1006,8 hPa 0,0 l/m 0,7 km/h (0 Bft) O 101 0,6 C 3,4 C 4,8 km/h (1 Bft)
07.12.2021 17:20 3,5 C 82 % 1007,0 hPa 0,0 l/m 2,5 km/h (1 Bft) SO 129 0,7 C 3,5 C 9,7 km/h (2 Bft)
07.12.2021 17:15 3,6 C 82 % 1007,0 hPa 0,0 l/m 2,8 km/h (1 Bft) O-SO 102 0,8 C 3,6 C 6,4 km/h (2 Bft)
07.12.2021 17:10 3,7 C 81 % 1007,3 hPa 0,0 l/m 2,9 km/h (1 Bft) O 99 0,7 C 3,7 C 6,4 km/h (2 Bft)
07.12.2021 17:05 3,7 C 81 % 1007,2 hPa 0,0 l/m 4,5 km/h (1 Bft) O-SO 123 0,7 C 3,7 C 9,7 km/h (2 Bft)
07.12.2021 17:00 3,7 C 81 % 1007,4 hPa 0,0 l/m 3,7 km/h (1 Bft) O-SO 117 0,7 C 3,7 C 9,7 km/h (2 Bft)
07.12.2021 16:55 3,8 C 81 % 1007,5 hPa 0,0 l/m 3,7 km/h (1 Bft) O 97 0,8 C 3,8 C 9,7 km/h (2 Bft)
07.12.2021 16:50 3,8 C 81 % 1007,5 hPa 0,0 l/m 2,6 km/h (1 Bft) O-SO 109 0,8 C 3,8 C 6,4 km/h (2 Bft)
07.12.2021 16:45 3,8 C 81 % 1007,5 hPa 0,0 l/m 4,9 km/h (1 Bft) O-SO 111 0,8 C 3,8 C 11,3 km/h (2 Bft)
07.12.2021 16:40 3,9 C 81 % 1007,6 hPa 0,0 l/m 3,3 km/h (1 Bft) O 101 0,9 C 3,9 C 11,3 km/h (2 Bft)
07.12.2021 16:35 3,9 C 80 % 1007,6 hPa 0,0 l/m 1,7 km/h (1 Bft) SO 146 0,8 C 3,9 C 9,7 km/h (2 Bft)
07.12.2021 16:30 4,0 C 80 % 1007,7 hPa 0,0 l/m 3,2 km/h (1 Bft) O-SO 106 0,9 C 4,0 C 9,7 km/h (2 Bft)
07.12.2021 16:25 4,0 C 80 % 1008,0 hPa 0,0 l/m 3,3 km/h (1 Bft) O-SO 110 0,9 C 4,0 C 11,3 km/h (2 Bft)
07.12.2021 16:20 4,1 C 79 % 1008,1 hPa 0,0 l/m 3,6 km/h (1 Bft) S 179 0,8 C 4,1 C 11,3 km/h (2 Bft)
07.12.2021 16:15 4,2 C 79 % 1008,2 hPa 0,0 l/m 1,8 km/h (1 Bft) O-SO 114 0,9 C 4,2 C 4,8 km/h (1 Bft)
07.12.2021 16:10 4,2 C 78 % 1008,4 hPa 0,0 l/m 2,7 km/h (1 Bft) O-SO 112 0,7 C 4,2 C 6,4 km/h (2 Bft)
07.12.2021 16:05 4,3 C 78 % 1008,5 hPa 0,0 l/m 1,5 km/h (1 Bft) SO 129 0,8 C 4,3 C 4,8 km/h (1 Bft)
07.12.2021 16:00 4,3 C 77 % 1008,6 hPa 0,0 l/m 3,2 km/h (1 Bft) S 182 0,6 C 4,3 C 11,3 km/h (2 Bft)
07.12.2021 15:55 4,4 C 78 % 1008,7 hPa 0,0 l/m 1,3 km/h (1 Bft) O-SO 114 0,9 C 4,4 C 6,4 km/h (2 Bft)
07.12.2021 15:50 4,4 C 77 % 1008,8 hPa 0,0 l/m 2,8 km/h (1 Bft) S 175 0,7 C 4,4 C 9,7 km/h (2 Bft)
07.12.2021 15:45 4,5 C 77 % 1009,0 hPa 0,0 l/m 0,3 km/h (0 Bft) O-SO 121 0,8 C 4,5 C 3,2 km/h (1 Bft)
07.12.2021 15:40 4,6 C 76 % 1009,0 hPa 0,0 l/m 1,7 km/h (1 Bft) SO 128 0,7 C 4,6 C 6,4 km/h (2 Bft)
07.12.2021 15:35 4,6 C 77 % 1009,1 hPa 0,0 l/m 2,1 km/h (1 Bft) SO 142 0,9 C 4,6 C 8,0 km/h (2 Bft)
07.12.2021 15:30 4,6 C 77 % 1009,2 hPa 0,0 l/m 2,9 km/h (1 Bft) S-SO 150 0,9 C 4,6 C 9,7 km/h (2 Bft)
07.12.2021 15:25 4,7 C 77 % 1009,3 hPa 0,0 l/m 2,9 km/h (1 Bft) SO 136 1,0 C 4,7 C 9,7 km/h (2 Bft)
07.12.2021 15:20 4,7 C 77 % 1009,5 hPa 0,0 l/m 2,5 km/h (1 Bft) S-SW 210 1,0 C 4,7 C 12,9 km/h (3 Bft)
07.12.2021 15:15 4,8 C 75 % 1009,6 hPa 0,0 l/m 2,5 km/h (1 Bft) S-SW 194 0,8 C 4,8 C 9,7 km/h (2 Bft)
07.12.2021 15:10 4,8 C 76 % 1009,7 hPa 0,0 l/m 2,8 km/h (1 Bft) S-SW 211 0,9 C 4,8 C 6,4 km/h (2 Bft)
07.12.2021 15:05 4,9 C 75 % 1009,8 hPa 0,0 l/m 3,9 km/h (1 Bft) S-SO 165 0,8 C 4,9 C 11,3 km/h (2 Bft)
07.12.2021 15:00 5,0 C 75 % 1009,9 hPa 0,0 l/m 4,1 km/h (1 Bft) S-SW 200 0,9 C 5,0 C 14,5 km/h (3 Bft)
07.12.2021 14:55 5,1 C 75 % 1009,9 hPa 0,0 l/m 3,0 km/h (1 Bft) S-SW 194 1,0 C 5,1 C 9,7 km/h (2 Bft)
07.12.2021 14:50 5,2 C 75 % 1010,0 hPa 0,0 l/m 1,4 km/h (1 Bft) S 177 1,1 C 5,2 C 4,8 km/h (1 Bft)
07.12.2021 14:45 5,2 C 75 % 1010,1 hPa 0,0 l/m 2,1 km/h (1 Bft) SO 132 1,1 C 5,2 C 4,8 km/h (1 Bft)
07.12.2021 14:40 5,3 C 74 % 1010,2 hPa 0,0 l/m 4,5 km/h (1 Bft) SW 235 1,0 C 5,3 C 12,9 km/h (3 Bft)
07.12.2021 14:35 5,4 C 74 % 1010,4 hPa 0,0 l/m 2,8 km/h (1 Bft) SW 225 1,1 C 5,4 C 6,4 km/h (2 Bft)
07.12.2021 14:30 5,3 C 74 % 1010,4 hPa 0,0 l/m 1,7 km/h (1 Bft) S-SW 194 1,0 C 5,3 C 4,8 km/h (1 Bft)
07.12.2021 14:25 5,3 C 73 % 1010,6 hPa 0,0 l/m 3,3 km/h (1 Bft) S-SW 202 0,9 C 5,3 C 9,7 km/h (2 Bft)
07.12.2021 14:20 5,4 C 73 % 1010,7 hPa 0,0 l/m 5,7 km/h (2 Bft) S-SW 211 1,0 C 5,4 C 14,5 km/h (3 Bft)
07.12.2021 14:15 5,4 C 74 % 1010,8 hPa 0,0 l/m 4,8 km/h (1 Bft) SW 224 1,1 C 5,4 C 14,5 km/h (3 Bft)
07.12.2021 14:10 5,6 C 74 % 1011,0 hPa 0,0 l/m 4,4 km/h (1 Bft) SW 227 1,3 C 5,6 C 12,9 km/h (3 Bft)
07.12.2021 14:05 5,6 C 74 % 1011,0 hPa 0,0 l/m 4,5 km/h (1 Bft) SW 221 1,3 C 5,6 C 9,7 km/h (2 Bft)
07.12.2021 14:00 5,5 C 75 % 1011,1 hPa 0,0 l/m 3,0 km/h (1 Bft) SW 235 1,4 C 5,5 C 8,0 km/h (2 Bft)
07.12.2021 13:55 5,4 C 75 % 1011,0 hPa 0,0 l/m 1,9 km/h (1 Bft) W-SW 238 1,3 C 5,4 C 6,4 km/h (2 Bft)
07.12.2021 13:50 5,4 C 74 % 1011,2 hPa 0,0 l/m 6,2 km/h (2 Bft) S-SW 205 1,1 C 5,4 C 14,5 km/h (3 Bft)
07.12.2021 13:45 5,4 C 75 % 1011,4 hPa 0,0 l/m 6,7 km/h (2 Bft) W-SW 242 1,3 C 5,2 C 14,5 km/h (3 Bft)
07.12.2021 13:40 5,4 C 75 % 1011,3 hPa 0,0 l/m 5,6 km/h (2 Bft) W-SW 240 1,3 C 5,4 C 17,7 km/h (3 Bft)
07.12.2021 13:35 5,2 C 76 % 1011,4 hPa 0,0 l/m 7,0 km/h (2 Bft) W-SW 248 1,3 C 4,7 C 17,7 km/h (3 Bft)
07.12.2021 13:30 5,3 C 75 % 1011,2 hPa 0,0 l/m 7,1 km/h (2 Bft) W-SW 256 1,2 C 4,7 C 16,1 km/h (3 Bft)
07.12.2021 13:25 5,2 C 76 % 1011,3 hPa 0,0 l/m 4,6 km/h (1 Bft) SW 234 1,3 C 5,2 C 14,5 km/h (3 Bft)
07.12.2021 13:20 5,1 C 76 % 1011,3 hPa 0,0 l/m 6,9 km/h (2 Bft) S-SO 163 1,2 C 4,7 C 17,7 km/h (3 Bft)
07.12.2021 13:15 5,2 C 75 % 1011,3 hPa 0,0 l/m 9,0 km/h (2 Bft) W 260 1,1 C 3,0 C 20,9 km/h (4 Bft)
07.12.2021 13:10 5,2 C 76 % 1011,3 hPa 0,0 l/m 7,7 km/h (2 Bft) W-SW 256 1,3 C 4,1 C 24,1 km/h (4 Bft)
07.12.2021 13:05 5,3 C 75 % 1011,4 hPa 0,0 l/m 8,7 km/h (2 Bft) S-SO 150 1,2 C 3,4 C 22,5 km/h (4 Bft)
07.12.2021 13:00 5,4 C 76 % 1011,4 hPa 0,0 l/m 4,0 km/h (1 Bft) SW 226 1,5 C 5,4 C 11,3 km/h (2 Bft)
07.12.2021 12:55 5,3 C 75 % 1011,5 hPa 0,0 l/m 6,0 km/h (2 Bft) SW 224 1,2 C 5,3 C 17,7 km/h (3 Bft)
07.12.2021 12:50 5,4 C 75 % 1011,6 hPa 0,0 l/m 6,9 km/h (2 Bft) W-SW 246 1,3 C 5,0 C 17,7 km/h (3 Bft)
07.12.2021 12:45 5,3 C 75 % 1011,5 hPa 0,0 l/m 8,6 km/h (2 Bft) W-SW 250 1,2 C 3,4 C 17,7 km/h (3 Bft)
07.12.2021 12:40 5,5 C 75 % 1011,6 hPa 0,0 l/m 8,2 km/h (2 Bft) SW 236 1,4 C 4,0 C 16,1 km/h (3 Bft)
07.12.2021 12:35 5,7 C 76 % 1011,7 hPa 0,0 l/m 3,9 km/h (1 Bft) W-SW 242 1,8 C 5,7 C 9,7 km/h (2 Bft)
07.12.2021 12:30 5,6 C 77 % 1011,9 hPa 0,0 l/m 4,7 km/h (1 Bft) SW 227 1,9 C 5,6 C 9,7 km/h (2 Bft)
07.12.2021 12:25 5,5 C 77 % 1011,9 hPa 0,0 l/m 6,9 km/h (2 Bft) W-SW 255 1,8 C 5,1 C 16,1 km/h (3 Bft)
07.12.2021 12:20 5,5 C 77 % 1012,0 hPa 0,0 l/m 5,6 km/h (2 Bft) S-SW 210 1,8 C 5,5 C 14,5 km/h (3 Bft)
07.12.2021 12:15 5,4 C 77 % 1012,1 hPa 0,0 l/m 6,1 km/h (2 Bft) SW 216 1,7 C 5,4 C 17,7 km/h (3 Bft)
07.12.2021 12:10 5,3 C 77 % 1012,2 hPa 0,0 l/m 7,9 km/h (2 Bft) SW 227 1,6 C 4,0 C 16,1 km/h (3 Bft)
07.12.2021 12:05 5,4 C 77 % 1012,2 hPa 0,0 l/m 7,9 km/h (2 Bft) S-SW 210 1,7 C 4,1 C 17,7 km/h (3 Bft)
07.12.2021 12:00 5,3 C 78 % 1012,4 hPa 0,0 l/m 7,0 km/h (2 Bft) W 260 1,8 C 4,8 C 12,9 km/h (3 Bft)
07.12.2021 11:55 5,3 C 78 % 1012,4 hPa 0,0 l/m 5,6 km/h (2 Bft) W 267 1,8 C 5,3 C 11,3 km/h (2 Bft)
07.12.2021 11:50 5,2 C 77 % 1012,4 hPa 0,0 l/m 8,3 km/h (2 Bft) W-SW 239 1,5 C 3,6 C 19,3 km/h (3 Bft)
07.12.2021 11:45 5,2 C 78 % 1012,3 hPa 0,0 l/m 5,6 km/h (2 Bft) S-SW 198 1,7 C 5,2 C 14,5 km/h (3 Bft)
07.12.2021 11:40 5,2 C 78 % 1012,3 hPa 0,0 l/m 7,4 km/h (2 Bft) S-SW 211 1,7 C 4,3 C 17,7 km/h (3 Bft)
07.12.2021 11:35 5,2 C 78 % 1012,4 hPa 0,0 l/m 5,9 km/h (2 Bft) SW 218 1,7 C 5,2 C 14,5 km/h (3 Bft)
07.12.2021 11:30 5,2 C 78 % 1012,4 hPa 0,0 l/m 7,0 km/h (2 Bft) SW 215 1,7 C 4,7 C 17,7 km/h (3 Bft)
07.12.2021 11:25 5,2 C 79 % 1012,5 hPa 0,0 l/m 4,3 km/h (1 Bft) W-NW 302 1,9 C 5,2 C 12,9 km/h (3 Bft)
07.12.2021 11:20 5,1 C 80 % 1012,5 hPa 0,0 l/m 3,6 km/h (1 Bft) W 261 1,9 C 5,1 C 12,9 km/h (3 Bft)
07.12.2021 11:15 4,8 C 79 % 1012,5 hPa 0,0 l/m 4,5 km/h (1 Bft) SW 219 1,5 C 4,8 C 11,3 km/h (2 Bft)
07.12.2021 11:10 4,7 C 79 % 1012,6 hPa 0,0 l/m 5,9 km/h (2 Bft) W-SW 252 1,4 C 4,7 C 12,9 km/h (3 Bft)
07.12.2021 11:05 4,7 C 80 % 1012,7 hPa 0,0 l/m 6,8 km/h (2 Bft) W 271 1,6 C 4,4 C 14,5 km/h (3 Bft)
07.12.2021 11:00 4,7 C 80 % 1012,8 hPa 0,0 l/m 5,3 km/h (1 Bft) W 261 1,6 C 4,7 C 11,3 km/h (2 Bft)
07.12.2021 10:55 4,6 C 80 % 1012,8 hPa 0,0 l/m 6,0 km/h (2 Bft) SW 233 1,5 C 4,6 C 14,5 km/h (3 Bft)
07.12.2021 10:50 4,5 C 81 % 1012,9 hPa 0,0 l/m 4,1 km/h (1 Bft) W 261 1,5 C 4,5 C 9,7 km/h (2 Bft)
07.12.2021 10:45 4,4 C 81 % 1012,8 hPa 0,0 l/m 5,2 km/h (1 Bft) SW 223 1,4 C 4,4 C 12,9 km/h (3 Bft)
07.12.2021 10:40 4,4 C 80 % 1012,9 hPa 0,0 l/m 5,8 km/h (2 Bft) SW 232 1,3 C 4,4 C 12,9 km/h (3 Bft)
07.12.2021 10:35 4,3 C 81 % 1012,9 hPa 0,0 l/m 8,7 km/h (2 Bft) W-SW 247 1,3 C 2,3 C 16,1 km/h (3 Bft)
07.12.2021 10:30 4,3 C 81 % 1012,9 hPa 0,0 l/m 11,3 km/h (2 Bft) W-NW 288 1,3 C 0,4 C 20,9 km/h (4 Bft)
07.12.2021 10:25 4,2 C 83 % 1013,0 hPa 0,0 l/m 8,2 km/h (2 Bft) W-SW 247 1,6 C 2,6 C 16,1 km/h (3 Bft)
07.12.2021 10:20 4,1 C 83 % 1013,0 hPa 0,0 l/m 6,3 km/h (2 Bft) SW 221 1,5 C 4,1 C 14,5 km/h (3 Bft)
07.12.2021 10:15 4,0 C 83 % 1013,0 hPa 0,0 l/m 5,8 km/h (2 Bft) W 271 1,4 C 4,0 C 17,7 km/h (3 Bft)
07.12.2021 10:10 3,9 C 83 % 1012,9 hPa 0,0 l/m 7,5 km/h (2 Bft) SW 221 1,3 C 2,9 C 20,9 km/h (4 Bft)
07.12.2021 10:05 3,7 C 84 % 1012,8 hPa 0,0 l/m 5,4 km/h (2 Bft) W 266 1,3 C 3,7 C 17,7 km/h (3 Bft)
07.12.2021 10:00 3,6 C 85 % 1012,7 hPa 0,0 l/m 3,8 km/h (1 Bft) W 260 1,3 C 3,6 C 9,7 km/h (2 Bft)
07.12.2021 09:55 3,5 C 85 % 1012,6 hPa 0,0 l/m 5,0 km/h (1 Bft) SW 225 1,2 C 3,5 C 11,3 km/h (2 Bft)
07.12.2021 09:50 3,4 C 85 % 1012,5 hPa 0,0 l/m 3,9 km/h (1 Bft) S-SW 206 1,1 C 3,4 C 9,7 km/h (2 Bft)
07.12.2021 09:45 3,4 C 86 % 1012,5 hPa 0,0 l/m 3,2 km/h (1 Bft) SW 235 1,3 C 3,4 C 9,7 km/h (2 Bft)
07.12.2021 09:40 3,3 C 86 % 1012,4 hPa 0,0 l/m 4,9 km/h (1 Bft) W-SW 250 1,2 C 3,3 C 11,3 km/h (2 Bft)
07.12.2021 09:35 3,1 C 86 % 1012,5 hPa 0,0 l/m 3,7 km/h (1 Bft) W-SW 256 1,0 C 3,1 C 9,7 km/h (2 Bft)
07.12.2021 09:30 3,0 C 87 % 1012,7 hPa 0,0 l/m 4,1 km/h (1 Bft) W 269 1,1 C 3,0 C 9,7 km/h (2 Bft)
07.12.2021 09:25 2,8 C 87 % 1012,6 hPa 0,0 l/m 3,5 km/h (1 Bft) W-SW 244 0,9 C 2,8 C 8,0 km/h (2 Bft)
07.12.2021 09:20 2,7 C 87 % 1012,5 hPa 0,0 l/m 1,3 km/h (1 Bft) W-SW 246 0,8 C 2,7 C 4,8 km/h (1 Bft)
07.12.2021 09:15 2,7 C 87 % 1012,5 hPa 0,0 l/m 1,0 km/h (0 Bft) W-SW 250 0,8 C 2,7 C 6,4 km/h (2 Bft)
07.12.2021 09:10 2,7 C 87 % 1012,5 hPa 0,0 l/m 1,7 km/h (1 Bft) W-SW 244 0,8 C 2,7 C 4,8 km/h (1 Bft)
07.12.2021 09:05 2,7 C 87 % 1012,4 hPa 0,0 l/m 2,5 km/h (1 Bft) S-SW 200 0,8 C 2,7 C 6,4 km/h (2 Bft)
07.12.2021 09:00 2,7 C 87 % 1012,4 hPa 0,0 l/m 1,3 km/h (1 Bft) SW 230 0,8 C 2,7 C 3,2 km/h (1 Bft)
07.12.2021 08:55 2,7 C 87 % 1012,3 hPa 0,0 l/m 2,3 km/h (1 Bft) SW 235 0,8 C 2,7 C 6,4 km/h (2 Bft)
07.12.2021 08:50 2,6 C 88 % 1012,2 hPa 0,0 l/m 3,4 km/h (1 Bft) SW 227 0,8 C 2,6 C 8,0 km/h (2 Bft)
07.12.2021 08:45 2,6 C 87 % 1012,2 hPa 0,0 l/m 3,0 km/h (1 Bft) SW 230 0,7 C 2,6 C 8,0 km/h (2 Bft)
07.12.2021 08:40 2,6 C 87 % 1012,2 hPa 0,0 l/m 5,6 km/h (2 Bft) SW 236 0,7 C 2,6 C 12,9 km/h (3 Bft)
07.12.2021 08:35 2,7 C 87 % 1012,3 hPa 0,0 l/m 5,5 km/h (2 Bft) W-SW 240 0,8 C 2,7 C 11,3 km/h (2 Bft)
07.12.2021 08:30 2,7 C 87 % 1012,2 hPa 0,0 l/m 6,6 km/h (2 Bft) W 280 0,8 C 2,5 C 12,9 km/h (3 Bft)
07.12.2021 08:25 2,7 C 87 % 1012,2 hPa 0,0 l/m 5,0 km/h (1 Bft) W-SW 257 0,8 C 2,7 C 9,7 km/h (2 Bft)
07.12.2021 08:20 2,7 C 88 % 1012,1 hPa 0,0 l/m 6,2 km/h (2 Bft) W-NW 300 0,9 C 2,7 C 11,3 km/h (2 Bft)
07.12.2021 08:15 2,8 C 88 % 1012,2 hPa 0,0 l/m 6,0 km/h (2 Bft) W-SW 249 1,0 C 2,8 C 12,9 km/h (3 Bft)
07.12.2021 08:10 2,7 C 88 % 1012,2 hPa 0,0 l/m 5,9 km/h (2 Bft) W 264 0,9 C 2,7 C 11,3 km/h (2 Bft)
07.12.2021 08:05 2,7 C 87 % 1012,0 hPa 0,0 l/m 7,3 km/h (2 Bft) W-SW 246 0,8 C 1,8 C 14,5 km/h (3 Bft)
07.12.2021 08:00 2,8 C 87 % 1012,1 hPa 0,0 l/m 4,8 km/h (1 Bft) W 270 0,9 C 2,8 C 11,3 km/h (2 Bft)
07.12.2021 07:55 2,9 C 87 % 1012,0 hPa 0,0 l/m 6,0 km/h (2 Bft) W 270 1,0 C 2,9 C 11,3 km/h (2 Bft)
07.12.2021 07:50 2,9 C 87 % 1012,1 hPa 0,0 l/m 6,1 km/h (2 Bft) W 272 1,0 C 2,9 C 11,3 km/h (2 Bft)
07.12.2021 07:45 3,0 C 87 % 1012,1 hPa 0,0 l/m 6,1 km/h (2 Bft) W-SW 248 1,1 C 3,0 C 12,9 km/h (3 Bft)
07.12.2021 07:40 3,1 C 87 % 1012,0 hPa 0,0 l/m 5,5 km/h (2 Bft) W 276 1,2 C 3,1 C 11,3 km/h (2 Bft)
07.12.2021 07:35 3,2 C 87 % 1012,0 hPa 0,0 l/m 5,3 km/h (1 Bft) W 269 1,2 C 3,2 C 9,7 km/h (2 Bft)
07.12.2021 07:30 3,3 C 87 % 1012,0 hPa 0,0 l/m 5,4 km/h (2 Bft) W 261 1,3 C 3,3 C 11,3 km/h (2 Bft)
07.12.2021 07:25 3,4 C 86 % 1011,9 hPa 0,0 l/m 5,8 km/h (2 Bft) W-NW 282 1,3 C 3,4 C 9,7 km/h (2 Bft)
07.12.2021 07:20 3,6 C 86 % 1011,7 hPa 0,0 l/m 7,0 km/h (2 Bft) W 275 1,5 C 3,0 C 12,9 km/h (3 Bft)
07.12.2021 07:15 3,7 C 86 % 1011,5 hPa 0,0 l/m 7,0 km/h (2 Bft) W 275 1,6 C 3,1 C 12,9 km/h (3 Bft)
07.12.2021 07:10 3,8 C 86 % 1011,5 hPa 0,0 l/m 7,5 km/h (2 Bft) W 261 1,7 C 2,8 C 14,5 km/h (3 Bft)
07.12.2021 07:05 3,9 C 86 % 1011,5 hPa 0,0 l/m 9,5 km/h (2 Bft) W-NW 299 1,8 C 1,2 C 16,1 km/h (3 Bft)
07.12.2021 07:00 4,1 C 85 % 1011,2 hPa 0,0 l/m 8,4 km/h (2 Bft) W 269 1,8 C 2,3 C 16,1 km/h (3 Bft)
07.12.2021 06:55 4,2 C 85 % 1011,2 hPa 0,0 l/m 10,4 km/h (2 Bft) W-NW 284 1,9 C 0,9 C 19,3 km/h (3 Bft)
07.12.2021 06:50 4,2 C 85 % 1011,2 hPa 0,0 l/m 10,3 km/h (2 Bft) W 271 1,9 C 1,0 C 19,3 km/h (3 Bft)
07.12.2021 06:45 4,2 C 85 % 1011,0 hPa 0,0 l/m 8,8 km/h (2 Bft) W-NW 290 1,9 C 2,1 C 19,3 km/h (3 Bft)
07.12.2021 06:40 4,3 C 85 % 1010,9 hPa 0,0 l/m 11,3 km/h (2 Bft) W-SW 251 2,0 C 0,4 C 19,3 km/h (3 Bft)
07.12.2021 06:35 4,2 C 86 % 1011,0 hPa 0,0 l/m 10,9 km/h (2 Bft) W-NW 287 2,1 C 0,6 C 19,3 km/h (3 Bft)
07.12.2021 06:30 4,2 C 86 % 1010,9 hPa 0,0 l/m 12,0 km/h (2 Bft) W-NW 292 2,1 C -0,2 C 17,7 km/h (3 Bft)
07.12.2021 06:25 4,2 C 86 % 1010,9 hPa 0,0 l/m 11,8 km/h (2 Bft) W-SW 242 2,1 C -0,0 C 19,3 km/h (3 Bft)
07.12.2021 06:20 4,2 C 86 % 1010,8 hPa 0,0 l/m 11,9 km/h (2 Bft) W 267 2,1 C -0,1 C 20,9 km/h (4 Bft)
07.12.2021 06:15 4,2 C 86 % 1010,8 hPa 0,0 l/m 14,2 km/h (3 Bft) NW 310 2,1 C -1,5 C 19,3 km/h (3 Bft)
07.12.2021 06:10 4,1 C 86 % 1010,8 hPa 0,0 l/m 12,0 km/h (2 Bft) W 267 2,0 C -0,3 C 20,9 km/h (4 Bft)
07.12.2021 06:05 4,1 C 86 % 1010,6 hPa 0,0 l/m 12,6 km/h (3 Bft) W-SW 238 2,0 C -0,7 C 24,1 km/h (4 Bft)
07.12.2021 06:00 4,1 C 86 % 1010,5 hPa 0,0 l/m 11,6 km/h (2 Bft) W-SW 245 2,0 C -0,0 C 24,1 km/h (4 Bft)
07.12.2021 05:55 4,1 C 86 % 1010,6 hPa 0,0 l/m 13,0 km/h (3 Bft) W-SW 256 2,0 C -0,9 C 20,9 km/h (4 Bft)
07.12.2021 05:50 4,1 C 87 % 1010,6 hPa 0,0 l/m 13,0 km/h (3 Bft) W 267 2,1 C -0,9 C 22,5 km/h (4 Bft)
07.12.2021 05:45 4,1 C 87 % 1010,5 hPa 0,0 l/m 12,0 km/h (2 Bft) W 265 2,1 C -0,3 C 20,9 km/h (4 Bft)
07.12.2021 05:40 4,1 C 87 % 1010,4 hPa 0,0 l/m 11,0 km/h (2 Bft) W-NW 282 2,1 C 0,4 C 19,3 km/h (3 Bft)
07.12.2021 05:35 4,1 C 87 % 1010,4 hPa 0,0 l/m 13,4 km/h (3 Bft) W-SW 250 2,1 C -1,1 C 22,5 km/h (4 Bft)
07.12.2021 05:30 4,1 C 87 % 1010,3 hPa 0,0 l/m 13,2 km/h (3 Bft) W-SW 258 2,1 C -1,0 C 25,7 km/h (4 Bft)
07.12.2021 05:25 4,1 C 87 % 1010,2 hPa 0,0 l/m 13,6 km/h (3 Bft) W-NW 286 2,1 C -1,2 C 25,7 km/h (4 Bft)
07.12.2021 05:20 4,0 C 87 % 1010,1 hPa 0,0 l/m 12,1 km/h (2 Bft) SW 225 2,0 C -0,5 C 20,9 km/h (4 Bft)
07.12.2021 05:15 4,0 C 88 % 1009,9 hPa 0,0 l/m 11,7 km/h (2 Bft) W 279 2,2 C -0,2 C 19,3 km/h (3 Bft)
07.12.2021 05:10 4,0 C 88 % 1009,9 hPa 0,0 l/m 12,3 km/h (2 Bft) W-NW 286 2,2 C -0,6 C 20,9 km/h (4 Bft)
07.12.2021 05:05 4,0 C 88 % 1009,9 hPa 0,0 l/m 10,9 km/h (2 Bft) W 262 2,2 C 0,3 C 16,1 km/h (3 Bft)
07.12.2021 05:00 4,1 C 88 % 1009,9 hPa 0,0 l/m 10,4 km/h (2 Bft) W-NW 290 2,3 C 0,8 C 19,3 km/h (3 Bft)
07.12.2021 04:55 4,1 C 88 % 1009,8 hPa 0,0 l/m 10,8 km/h (2 Bft) W 279 2,3 C 0,5 C 22,5 km/h (4 Bft)
07.12.2021 04:50 4,2 C 88 % 1009,7 hPa 0,0 l/m 12,7 km/h (3 Bft) W-NW 287 2,4 C -0,6 C 22,5 km/h (4 Bft)
07.12.2021 04:45 4,2 C 88 % 1009,6 hPa 0,0 l/m 11,9 km/h (2 Bft) W-NW 289 2,4 C -0,1 C 20,9 km/h (4 Bft)
07.12.2021 04:40 4,3 C 88 % 1009,5 hPa 0,0 l/m 13,9 km/h (3 Bft) W 270 2,5 C -1,2 C 22,5 km/h (4 Bft)
07.12.2021 04:35 4,3 C 88 % 1009,5 hPa 0,0 l/m 11,8 km/h (2 Bft) W-SW 242 2,5 C 0,1 C 20,9 km/h (4 Bft)
07.12.2021 04:30 4,3 C 88 % 1009,3 hPa 0,0 l/m 13,8 km/h (3 Bft) W-SW 246 2,5 C -1,1 C 22,5 km/h (4 Bft)
07.12.2021 04:25 4,3 C 89 % 1009,3 hPa 0,0 l/m 13,2 km/h (3 Bft) W 267 2,7 C -0,8 C 24,1 km/h (4 Bft)
07.12.2021 04:20 4,3 C 89 % 1009,2 hPa 0,0 l/m 14,1 km/h (3 Bft) W-NW 289 2,7 C -1,3 C 24,1 km/h (4 Bft)
07.12.2021 04:15 4,1 C 90 % 1009,1 hPa 0,2 l/m 11,2 km/h (2 Bft) W-SW 255 2,6 C 0,2 C 19,3 km/h (3 Bft)
07.12.2021 04:10 3,9 C 91 % 1009,1 hPa 0,0 l/m 12,2 km/h (2 Bft) W-SW 237 2,6 C -0,6 C 19,3 km/h (3 Bft)
07.12.2021 04:05 3,7 C 91 % 1008,9 hPa 0,0 l/m 11,0 km/h (2 Bft) W-NW 284 2,4 C -0,1 C 20,9 km/h (4 Bft)
07.12.2021 04:00 3,6 C 92 % 1008,8 hPa 0,0 l/m 11,7 km/h (2 Bft) W-NW 283 2,4 C -0,7 C 20,9 km/h (4 Bft)
07.12.2021 03:55 3,5 C 92 % 1008,7 hPa 0,0 l/m 10,1 km/h (2 Bft) W-SW 254 2,3 C 0,3 C 19,3 km/h (3 Bft)
07.12.2021 03:50 3,4 C 92 % 1008,7 hPa 0,0 l/m 11,6 km/h (2 Bft) W-NW 283 2,2 C -0,8 C 19,3 km/h (3 Bft)
07.12.2021 03:45 3,4 C 92 % 1008,6 hPa 0,4 l/m 13,1 km/h (3 Bft) W-SW 252 2,2 C -1,8 C 24,1 km/h (4 Bft)
07.12.2021 03:40 3,4 C 91 % 1008,6 hPa 0,2 l/m 14,0 km/h (3 Bft) W 265 2,1 C -2,3 C 25,7 km/h (4 Bft)
07.12.2021 03:35 3,4 C 91 % 1008,5 hPa 0,4 l/m 13,0 km/h (3 Bft) W-SW 247 2,1 C -1,7 C 19,3 km/h (3 Bft)
07.12.2021 03:30 3,4 C 91 % 1008,5 hPa 0,2 l/m 14,6 km/h (3 Bft) W 270 2,1 C -2,6 C 25,7 km/h (4 Bft)
07.12.2021 03:25 3,5 C 90 % 1008,4 hPa 0,4 l/m 16,6 km/h (3 Bft) W 269 2,0 C -3,6 C 30,6 km/h (5 Bft)
07.12.2021 03:20 3,6 C 90 % 1008,3 hPa 0,2 l/m 17,8 km/h (3 Bft) W 266 2,1 C -4,0 C 32,2 km/h (5 Bft)
07.12.2021 03:15 3,6 C 90 % 1007,9 hPa 0,0 l/m 18,9 km/h (3 Bft) W-SW 252 2,1 C -4,5 C 32,2 km/h (5 Bft)
07.12.2021 03:10 3,6 C 90 % 1007,9 hPa 0,0 l/m 17,6 km/h (3 Bft) W 265 2,1 C -3,9 C 30,6 km/h (5 Bft)
07.12.2021 03:05 3,7 C 89 % 1007,9 hPa 0,0 l/m 16,4 km/h (3 Bft) W 262 2,1 C -3,2 C 29,0 km/h (5 Bft)
07.12.2021 03:00 3,7 C 90 % 1007,7 hPa 0,0 l/m 16,3 km/h (3 Bft) W-SW 254 2,2 C -3,2 C 25,7 km/h (4 Bft)
07.12.2021 02:55 3,8 C 90 % 1007,6 hPa 0,0 l/m 16,2 km/h (3 Bft) W-NW 297 2,3 C -3,0 C 27,4 km/h (5 Bft)
07.12.2021 02:50 3,8 C 90 % 1007,7 hPa 0,0 l/m 14,9 km/h (3 Bft) W 269 2,3 C -2,3 C 22,5 km/h (4 Bft)
07.12.2021 02:45 3,7 C 90 % 1007,5 hPa 0,2 l/m 16,4 km/h (3 Bft) W 259 2,2 C -3,2 C 24,1 km/h (4 Bft)
07.12.2021 02:40 3,7 C 91 % 1007,3 hPa 0,0 l/m 13,6 km/h (3 Bft) W-SW 251 2,4 C -1,7 C 22,5 km/h (4 Bft)
07.12.2021 02:35 3,7 C 91 % 1007,3 hPa 0,0 l/m 14,5 km/h (3 Bft) SW 222 2,4 C -2,2 C 24,1 km/h (4 Bft)
07.12.2021 02:30 3,5 C 91 % 1007,2 hPa 0,2 l/m 15,6 km/h (3 Bft) W 281 2,2 C -3,1 C 29,0 km/h (5 Bft)
07.12.2021 02:25 3,2 C 92 % 1007,0 hPa 0,0 l/m 12,2 km/h (2 Bft) W-SW 245 2,0 C -1,4 C 20,9 km/h (4 Bft)
07.12.2021 02:20 3,1 C 91 % 1006,8 hPa 0,2 l/m 9,4 km/h (2 Bft) W 272 1,8 C 0,4 C 16,1 km/h (3 Bft)
07.12.2021 02:15 2,9 C 91 % 1006,8 hPa 0,0 l/m 10,5 km/h (2 Bft) W 273 1,6 C -0,6 C 19,3 km/h (3 Bft)
07.12.2021 02:10 2,8 C 91 % 1006,7 hPa 0,2 l/m 10,6 km/h (2 Bft) W-SW 253 1,5 C -0,8 C 19,3 km/h (3 Bft)
07.12.2021 02:05 2,8 C 91 % 1006,8 hPa 0,0 l/m 11,9 km/h (2 Bft) W 267 1,5 C -1,7 C 20,9 km/h (4 Bft)
07.12.2021 02:00 2,9 C 91 % 1006,6 hPa 0,0 l/m 11,5 km/h (2 Bft) W-SW 258 1,6 C -1,3 C 22,5 km/h (4 Bft)
07.12.2021 01:55 2,9 C 90 % 1006,7 hPa 0,2 l/m 11,2 km/h (2 Bft) W-NW 290 1,4 C -1,1 C 20,9 km/h (4 Bft)
07.12.2021 01:50 2,9 C 90 % 1006,5 hPa 0,2 l/m 11,0 km/h (2 Bft) W-NW 292 1,4 C -1,0 C 19,3 km/h (3 Bft)
07.12.2021 01:45 3,0 C 90 % 1006,5 hPa 0,0 l/m 11,1 km/h (2 Bft) W-SW 256 1,5 C -0,9 C 20,9 km/h (4 Bft)
07.12.2021 01:40 2,9 C 90 % 1006,5 hPa 0,0 l/m 10,7 km/h (2 Bft) W 262 1,4 C -0,8 C 22,5 km/h (4 Bft)
07.12.2021 01:35 2,9 C 91 % 1006,5 hPa 0,2 l/m 11,2 km/h (2 Bft) W 265 1,6 C -1,1 C 17,7 km/h (3 Bft)
07.12.2021 01:30 2,8 C 91 % 1006,4 hPa 0,0 l/m 8,8 km/h (2 Bft) W-NW 293 1,5 C 0,6 C 14,5 km/h (3 Bft)
07.12.2021 01:25 2,8 C 90 % 1006,4 hPa 0,2 l/m 7,8 km/h (2 Bft) W 273 1,3 C 1,5 C 16,1 km/h (3 Bft)
07.12.2021 01:20 2,8 C 90 % 1006,4 hPa 0,2 l/m 8,5 km/h (2 Bft) W 264 1,3 C 0,9 C 22,5 km/h (4 Bft)
07.12.2021 01:15 2,9 C 89 % 1006,3 hPa 0,2 l/m 11,6 km/h (2 Bft) W-NW 298 1,3 C -1,4 C 22,5 km/h (4 Bft)
07.12.2021 01:10 3,1 C 89 % 1006,4 hPa 0,4 l/m 15,2 km/h (3 Bft) W 270 1,5 C -3,3 C 30,6 km/h (5 Bft)
07.12.2021 01:05 3,3 C 88 % 1006,2 hPa 0,0 l/m 14,5 km/h (3 Bft) SW 230 1,5 C -2,7 C 30,6 km/h (5 Bft)
07.12.2021 01:00 3,4 C 88 % 1006,0 hPa 0,2 l/m 13,3 km/h (3 Bft) W-SW 257 1,6 C -1,9 C 25,7 km/h (4 Bft)
07.12.2021 00:55 3,5 C 87 % 1005,9 hPa 0,0 l/m 12,5 km/h (2 Bft) W-NW 293 1,5 C -1,3 C 22,5 km/h (4 Bft)
07.12.2021 00:50 3,4 C 87 % 1005,7 hPa 0,0 l/m 9,0 km/h (2 Bft) W-SW 242 1,4 C 1,1 C 19,3 km/h (3 Bft)
07.12.2021 00:45 3,5 C 87 % 1005,6 hPa 0,0 l/m 10,2 km/h (2 Bft) W-SW 242 1,5 C 0,3 C 22,5 km/h (4 Bft)
07.12.2021 00:40 3,4 C 87 % 1005,3 hPa 0,0 l/m 12,4 km/h (2 Bft) S 174 1,4 C -1,3 C 25,7 km/h (4 Bft)
07.12.2021 00:35 3,2 C 87 % 1005,2 hPa 0,0 l/m 10,6 km/h (2 Bft) SW 234 1,2 C -0,4 C 20,9 km/h (4 Bft)
07.12.2021 00:30 3,1 C 88 % 1005,4 hPa 0,0 l/m 9,3 km/h (2 Bft) SW 214 1,3 C 0,5 C 19,3 km/h (3 Bft)
07.12.2021 00:25 2,9 C 88 % 1005,3 hPa 0,0 l/m 6,3 km/h (2 Bft) W-SW 250 1,1 C 2,9 C 14,5 km/h (3 Bft)
07.12.2021 00:20 2,9 C 89 % 1005,3 hPa 0,0 l/m 4,3 km/h (1 Bft) S-SW 195 1,3 C 2,9 C 11,3 km/h (2 Bft)
07.12.2021 00:15 2,8 C 89 % 1005,4 hPa 0,0 l/m 4,0 km/h (1 Bft) SW 231 1,2 C 2,8 C 11,3 km/h (2 Bft)
07.12.2021 00:10 2,8 C 89 % 1005,5 hPa 0,0 l/m 4,5 km/h (1 Bft) SW 236 1,2 C 2,8 C 11,3 km/h (2 Bft)
07.12.2021 00:05 2,7 C 89 % 1005,5 hPa 0,0 l/m 4,6 km/h (1 Bft) S-SW 211 1,1 C 2,7 C 12,9 km/h (3 Bft)
07.12.2021 00:00 2,6 C 90 % 1005,5 hPa 0,0 l/m 2,3 km/h (1 Bft) SW 223 1,1 C 2,6 C 6,4 km/h (2 Bft)
06.12.2021 23:55 2,5 C 90 % 1005,5 hPa 0,0 l/m 3,7 km/h (1 Bft) S-SO 151 1,0 C 2,5 C 11,3 km/h (2 Bft)
06.12.2021 23:50 2,4 C 90 % 1005,6 hPa 0,0 l/m 2,9 km/h (1 Bft) SW 218 0,9 C 2,4 C 11,3 km/h (2 Bft)
06.12.2021 23:45 2,3 C 91 % 1005,6 hPa 0,0 l/m 1,9 km/h (1 Bft) O-SO 113 1,0 C 2,3 C 9,7 km/h (2 Bft)
06.12.2021 23:40 2,3 C 90 % 1005,5 hPa 0,0 l/m 3,4 km/h (1 Bft) O-SO 116 0,8 C 2,3 C 9,7 km/h (2 Bft)
06.12.2021 23:35 2,3 C 90 % 1005,6 hPa 0,2 l/m 4,8 km/h (1 Bft) SW 215 0,8 C 2,3 C 12,9 km/h (3 Bft)
06.12.2021 23:30 2,2 C 91 % 1005,7 hPa 0,0 l/m 5,5 km/h (2 Bft) N-NW 338 0,9 C 2,2 C 16,1 km/h (3 Bft)
06.12.2021 23:25 2,2 C 91 % 1005,8 hPa 0,0 l/m 3,4 km/h (1 Bft) O-SO 106 0,9 C 2,2 C 11,3 km/h (2 Bft)
06.12.2021 23:20 2,2 C 91 % 1005,8 hPa 0,0 l/m 5,8 km/h (2 Bft) O 93 0,9 C 2,2 C 14,5 km/h (3 Bft)
06.12.2021 23:15 2,2 C 90 % 1006,0 hPa 0,0 l/m 5,6 km/h (2 Bft) O 101 0,7 C 2,2 C 16,1 km/h (3 Bft)
06.12.2021 23:10 2,2 C 90 % 1006,0 hPa 0,0 l/m 6,3 km/h (2 Bft) O-SO 119 0,7 C 2,2 C 14,5 km/h (3 Bft)
06.12.2021 23:05 2,3 C 90 % 1006,2 hPa 0,0 l/m 5,5 km/h (2 Bft) O 99 0,8 C 2,3 C 14,5 km/h (3 Bft)
06.12.2021 23:00 2,3 C 90 % 1006,3 hPa 0,2 l/m 7,1 km/h (2 Bft) S-SO 148 0,8 C 1,6 C 17,7 km/h (3 Bft)
06.12.2021 22:55 2,4 C 90 % 1006,5 hPa 0,0 l/m 6,5 km/h (2 Bft) O-SO 119 0,9 C 2,3 C 14,5 km/h (3 Bft)
06.12.2021 22:50 2,4 C 89 % 1006,6 hPa 0,2 l/m 7,1 km/h (2 Bft) O 94 0,8 C 1,7 C 17,7 km/h (3 Bft)
06.12.2021 22:45 2,5 C 89 % 1006,8 hPa 0,0 l/m 6,3 km/h (2 Bft) S-SO 167 0,9 C 2,5 C 17,7 km/h (3 Bft)
06.12.2021 22:40 2,6 C 89 % 1007,0 hPa 0,0 l/m 6,2 km/h (2 Bft) O 91 1,0 C 2,6 C 16,1 km/h (3 Bft)
06.12.2021 22:35 2,7 C 88 % 1007,2 hPa 0,2 l/m 5,3 km/h (1 Bft) O-SO 119 0,9 C 2,7 C 16,1 km/h (3 Bft)
06.12.2021 22:30 2,7 C 88 % 1007,3 hPa 0,0 l/m 5,3 km/h (1 Bft) O-SO 118 0,9 C 2,7 C 16,1 km/h (3 Bft)
06.12.2021 22:25 2,8 C 88 % 1007,5 hPa 0,2 l/m 6,6 km/h (2 Bft) O-SO 112 1,0 C 2,6 C 16,1 km/h (3 Bft)
06.12.2021 22:20 2,8 C 87 % 1007,6 hPa 0,0 l/m 5,3 km/h (1 Bft) SO 127 0,9 C 2,8 C 12,9 km/h (3 Bft)
06.12.2021 22:15 2,9 C 87 % 1007,9 hPa 0,0 l/m 2,5 km/h (1 Bft) O-SO 107 1,0 C 2,9 C 6,4 km/h (2 Bft)
06.12.2021 22:10 2,9 C 87 % 1008,0 hPa 0,0 l/m 1,9 km/h (1 Bft) O-SO 107 1,0 C 2,9 C 6,4 km/h (2 Bft)
06.12.2021 22:05 3,0 C 87 % 1008,2 hPa 0,2 l/m 3,5 km/h (1 Bft) O-SO 121 1,1 C 3,0 C 12,9 km/h (3 Bft)
06.12.2021 22:00 3,1 C 86 % 1008,3 hPa 0,0 l/m 2,9 km/h (1 Bft) O-SO 109 1,0 C 3,1 C 8,0 km/h (2 Bft)
06.12.2021 21:55 3,1 C 86 % 1008,4 hPa 0,0 l/m 4,0 km/h (1 Bft) S-SO 159 1,0 C 3,1 C 11,3 km/h (2 Bft)
06.12.2021 21:50 3,2 C 85 % 1008,6 hPa 0,0 l/m 3,2 km/h (1 Bft) S-SW 202 0,9 C 3,2 C 6,4 km/h (2 Bft)
06.12.2021 21:45 3,3 C 84 % 1008,8 hPa 0,0 l/m 3,2 km/h (1 Bft) S-SW 202 0,9 C 3,3 C 12,9 km/h (3 Bft)
06.12.2021 21:40 3,4 C 83 % 1008,9 hPa 0,0 l/m 4,8 km/h (1 Bft) S-SW 202 0,8 C 3,4 C 9,7 km/h (2 Bft)
06.12.2021 21:35 3,4 C 82 % 1009,1 hPa 0,0 l/m 4,8 km/h (1 Bft) S-SW 202 0,6 C 3,4 C 12,9 km/h (3 Bft)
06.12.2021 21:30 3,4 C 82 % 1009,2 hPa 0,0 l/m 3,2 km/h (1 Bft) SW 225 0,6 C 3,4 C 8,0 km/h (2 Bft)
06.12.2021 21:25 3,4 C 81 % 1009,2 hPa 0,0 l/m 3,3 km/h (1 Bft) W-SW 237 0,5 C 3,4 C 8,0 km/h (2 Bft)
06.12.2021 21:20 3,3 C 81 % 1009,3 hPa 0,0 l/m 1,9 km/h (1 Bft) S 171 0,4 C 3,3 C 9,7 km/h (2 Bft)
06.12.2021 21:15 3,3 C 81 % 1009,4 hPa 0,0 l/m 1,6 km/h (1 Bft) O-SO 110 0,4 C 3,3 C 6,4 km/h (2 Bft)
06.12.2021 21:10 3,3 C 81 % 1009,6 hPa 0,0 l/m 1,4 km/h (1 Bft) S-SW 209 0,4 C 3,3 C 4,8 km/h (1 Bft)
06.12.2021 21:05 3,3 C 81 % 1009,6 hPa 0,0 l/m 2,7 km/h (1 Bft) O-SO 107 0,4 C 3,3 C 6,4 km/h (2 Bft)
06.12.2021 21:00 3,3 C 81 % 1009,8 hPa 0,0 l/m 1,1 km/h (1 Bft) O-SO 109 0,4 C 3,3 C 4,8 km/h (1 Bft)
_ Min-Zeit 23:10 14:20 20:25 - 15:45 - - 21:00 03:15 17:40
Minimum _ 2,2 C 73 % 1001,9 hPa - 0,3 km/h (0 Bft) - - 0,4 C -4,5 C 1,6 km/h (1 Bft)
_ Max-Zeit 12:35 02:25 10:15 01:10 03:15 - - 04:20 12:35 03:15
Maximum _ 5,7 C 92 % 1013,0 hPa 0,4 l/m 18,9 km/h
W-SW (3 Bft)
- - 2,7 C 5,7 C 32,2 km/h
W (5 Bft)
Durchschnitt _ 3,8 C 84 % 1009,0 hPa #5,8 l/m 6,3 km/h (2 Bft) W-SW - 1,3 C 2,5 C 14,0 km/h (3 Bft)
www.klaudt.eu